RJOP(METAR)
10/16 18:00
METAR RJOP 160900Z 31009KT 280V340 9999 FEW030 SCT/// 20/10 Q1022
RMK 1CU030 A3021=
戻る
トップページへ戻る
IMOC Co,.Ltd.